Time;durP1;ratioP1;P1;durP2;ratioP2;P2;SDS_P1;SDS_P2;PMS_P1;PMS_P2;Temp;Humidity;BMP_temperature;BMP_pressure;BME280_temperature;BME280_humidity;BME280_pressure;Samples;Min_cycle;Max_cycle;Signal;HPM_P1;HPM_P2
2021/06/23 00:02:34;;;;;;;13.30;8.95;;;;;;;13.95;60.30;100761.06;10326919;28;20227;-72
2021/06/23 00:07:39;;;;;;;15.80;8.23;;;;;;;13.91;60.55;100757.78;10344371;28;20245;-71
2021/06/23 00:12:42;;;;;;;16.58;9.02;;;;;;;13.81;60.06;100750.66;10344598;28;20219;-71
2021/06/23 00:17:45;;;;;;;13.13;9.15;;;;;;;13.82;60.03;100755.94;10344146;28;20224;-72
2021/06/23 00:22:50;;;;;;;11.60;7.72;;;;;;;13.83;60.06;100757.63;10350841;28;20218;-71
2021/06/23 00:27:53;;;;;;;16.85;8.80;;;;;;;13.81;59.83;100765.00;10351142;28;20195;-71
2021/06/23 00:32:56;;;;;;;11.95;7.80;;;;;;;13.76;59.94;100764.53;10351058;28;20221;-72
2021/06/23 00:38:01;;;;;;;12.73;7.57;;;;;;;13.70;59.62;100771.34;10350145;28;20274;-72
2021/06/23 00:43:05;;;;;;;16.05;7.50;;;;;;;13.65;59.82;100773.59;10350780;28;20303;-72
2021/06/23 00:48:10;;;;;;;13.55;7.28;;;;;;;13.66;59.75;100771.78;10348745;28;20241;-72
2021/06/23 00:53:21;;;;;;;14.68;7.28;;;;;;;13.63;59.78;100780.13;10347665;28;20238;-73
2021/06/23 00:58:25;;;;;;;11.70;6.68;;;;;;;13.64;59.89;100788.09;10349258;28;20394;-72
2021/06/23 01:03:28;;;;;;;14.05;7.82;;;;;;;13.66;59.98;100798.78;10331872;28;20227;-72
2021/06/23 01:08:42;;;;;;;13.95;7.70;;;;;;;13.69;59.88;100810.16;10338862;28;20269;-73
2021/06/23 01:13:56;;;;;;;13.77;8.35;;;;;;;13.68;60.19;100807.56;10332309;28;20250;-73
2021/06/23 01:19:01;;;;;;;10.90;7.10;;;;;;;13.70;60.79;100808.28;10349945;28;20294;-73
2021/06/23 01:24:11;;;;;;;11.15;7.20;;;;;;;13.62;62.10;100805.41;10349479;28;20176;-73
2021/06/23 01:29:14;;;;;;;9.35;6.38;;;;;;;13.36;60.83;100805.81;10349082;28;20218;-72
2021/06/23 01:34:26;;;;;;;17.48;7.03;;;;;;;13.45;61.30;100799.63;10331350;28;20261;-73
2021/06/23 01:39:31;;;;;;;11.88;6.47;;;;;;;13.46;61.02;100793.22;10349057;28;20211;-72
2021/06/23 01:44:34;;;;;;;13.70;8.35;;;;;;;13.54;61.30;100797.97;10330790;28;20672;-73
2021/06/23 01:49:37;;;;;;;11.23;6.18;;;;;;;13.45;61.20;100801.47;10331183;28;20314;-73
2021/06/23 01:54:42;;;;;;;9.82;6.13;;;;;;;13.45;61.07;100801.47;10330553;28;20234;-72
2021/06/23 01:59:48;;;;;;;9.50;5.82;;;;;;;13.46;60.70;100813.97;10349176;28;20234;-73
2021/06/23 02:05:29;;;;;;;9.93;5.97;;;;;;;13.36;60.54;100831.94;10348696;28;20222;-73
2021/06/23 02:11:10;;;;;;;11.40;5.95;;;;;;;13.38;60.86;100832.66;10331735;28;20227;-73
2021/06/23 02:16:30;;;;;;;8.88;5.50;;;;;;;13.40;60.46;100828.00;10330786;28;20211;-73
2021/06/23 02:21:38;;;;;;;8.38;5.82;;;;;;;13.33;60.78;100821.38;10348700;28;20211;-73
2021/06/23 02:26:43;;;;;;;11.52;5.80;;;;;;;13.36;60.80;100813.91;10347619;28;20274;-73
2021/06/23 02:31:51;;;;;;;9.73;5.65;;;;;;;13.36;60.61;100826.53;10330003;28;20289;-73
2021/06/23 02:36:55;;;;;;;9.15;5.35;;;;;;;13.33;60.55;100824.97;10329655;28;20265;-73
2021/06/23 02:42:00;;;;;;;6.97;4.90;;;;;;;13.35;60.77;100828.34;10423930;23;20305;-72
2021/06/23 02:47:06;;;;;;;10.73;5.22;;;;;;;13.34;60.79;100821.25;10411986;28;20209;-72
2021/06/23 02:52:27;;;;;;;11.55;5.18;;;;;;;13.41;60.71;100840.50;10412010;28;20218;-72
2021/06/23 02:57:34;;;;;;;12.52;6.28;;;;;;;13.43;61.29;100839.38;10411691;28;20194;-72
2021/06/23 03:02:39;;;;;;;9.05;5.40;;;;;;;13.46;61.67;100839.13;10429595;28;20210;-72
2021/06/23 03:07:44;;;;;;;11.10;5.38;;;;;;;13.40;61.75;100839.66;10429305;28;20220;-72
2021/06/23 03:12:55;;;;;;;7.70;5.03;;;;;;;13.37;61.75;100839.06;10411828;28;20270;-72
2021/06/23 03:18:10;;;;;;;11.02;5.30;;;;;;;13.34;61.94;100834.75;10428698;28;20198;-72
2021/06/23 03:23:13;;;;;;;12.30;5.78;;;;;;;13.36;62.05;100837.34;10411246;28;20283;-72
2021/06/23 03:28:18;;;;;;;11.13;4.95;;;;;;;13.35;61.58;100841.00;10410642;28;20202;-72
2021/06/23 03:33:27;;;;;;;10.55;5.95;;;;;;;13.35;62.08;100849.94;10428616;28;20268;-71
2021/06/23 03:38:52;;;;;;;10.43;6.13;;;;;;;13.38;62.58;100851.56;10414943;28;20241;-72
2021/06/23 03:43:58;;;;;;;13.52;6.05;;;;;;;13.29;62.77;100855.88;10410688;28;20205;-72
2021/06/23 03:49:02;;;;;;;8.15;4.88;;;;;;;13.24;62.41;100860.78;10410726;28;20226;-72
2021/06/23 03:54:09;;;;;;;7.03;4.82;;;;;;;13.21;62.91;100852.97;10409936;28;20230;-73
2021/06/23 03:59:20;;;;;;;10.75;5.32;;;;;;;13.36;63.17;100854.38;10410415;28;20698;-71
2021/06/23 04:04:23;;;;;;;11.13;4.82;;;;;;;13.41;62.62;100870.19;10410087;28;20274;-72
2021/06/23 04:09:46;;;;;;;6.80;4.95;;;;;;;13.44;62.39;100860.00;10410084;28;20256;-72
2021/06/23 04:14:59;;;;;;;6.93;5.28;;;;;;;13.49;62.33;100863.16;10409897;28;20190;-71
2021/06/23 04:20:02;;;;;;;8.13;6.07;;;;;;;13.31;63.13;100855.75;10427601;28;20214;-72
2021/06/23 04:25:23;;;;;;;11.88;5.82;;;;;;;13.48;63.50;100839.00;10426952;28;20197;-73
2021/06/23 04:30:28;;;;;;;10.57;6.40;;;;;;;13.53;63.17;100844.00;10409203;28;20693;-73
2021/06/23 04:35:32;;;;;;;8.95;6.60;;;;;;;13.54;62.97;100846.56;10426434;28;20232;-72
2021/06/23 04:40:36;;;;;;;12.20;6.25;;;;;;;13.59;63.16;100848.88;10410129;28;20230;-72
2021/06/23 04:45:40;;;;;;;13.00;5.40;;;;;;;13.59;62.99;100852.41;10409869;28;20202;-72
2021/06/23 04:50:43;;;;;;;11.45;6.03;;;;;;;13.66;63.31;100866.25;10417079;28;20222;-72
2021/06/23 04:56:08;;;;;;;7.22;5.40;;;;;;;13.66;62.91;100866.25;10427549;28;20193;-71
2021/06/23 05:01:19;;;;;;;10.95;6.43;;;;;;;13.75;62.78;100854.66;10427686;28;20293;-71
2021/06/23 05:06:22;;;;;;;10.88;5.70;;;;;;;13.87;62.74;100852.72;10430728;28;20190;-72
2021/06/23 05:11:26;;;;;;;15.40;5.97;;;;;;;14.01;61.74;100854.19;10434198;28;20226;-72
2021/06/23 05:16:31;;;;;;;8.75;5.10;;;;;;;14.21;60.73;100849.75;10433860;28;20191;-72
2021/06/23 05:21:35;;;;;;;7.28;4.75;;;;;;;14.45;59.84;100852.97;10434008;28;20210;-72
2021/06/23 05:26:38;;;;;;;9.57;4.43;;;;;;;14.68;59.37;100861.72;10433543;28;20194;-72
2021/06/23 05:31:42;;;;;;;9.57;4.85;;;;;;;14.86;58.82;100858.31;10433206;28;20206;-72
2021/06/23 05:36:45;;;;;;;9.88;4.68;;;;;;;15.09;58.05;100864.31;10405697;28;20198;-71
2021/06/23 05:41:48;;;;;;;7.70;4.75;;;;;;;15.04;57.85;100864.75;10391813;28;20223;-72
2021/06/23 05:46:52;;;;;;;6.30;3.95;;;;;;;15.05;58.24;100871.84;10391415;28;20678;-71
2021/06/23 05:51:56;;;;;;;13.27;6.65;;;;;;;15.44;57.38;100880.84;10391649;28;20214;-72
2021/06/23 05:56:59;;;;;;;7.50;4.38;;;;;;;15.86;56.33;100887.75;10404098;28;20700;-72
2021/06/23 06:02:03;;;;;;;9.55;4.65;;;;;;;16.03;55.43;100891.56;10425438;28;20206;-71
2021/06/23 06:07:07;;;;;;;5.88;3.95;;;;;;;15.91;55.94;100896.31;10414437;28;20187;-72
2021/06/23 06:12:11;;;;;;;9.43;4.35;;;;;;;15.58;55.93;100900.38;10420807;28;20218;-71
2021/06/23 06:17:15;;;;;;;5.95;4.00;;;;;;;15.70;55.52;100891.06;10422868;28;20209;-72
2021/06/23 06:22:18;;;;;;;8.27;4.20;;;;;;;15.91;55.52;100893.59;10411327;28;20202;-71
2021/06/23 06:27:21;;;;;;;11.15;4.60;;;;;;;16.15;54.83;100893.06;10404042;28;20282;-72
2021/06/23 06:32:26;;;;;;;9.18;4.10;;;;;;;16.03;55.33;100900.53;10417759;28;20240;-72
2021/06/23 06:37:29;;;;;;;11.73;4.88;;;;;;;15.92;55.57;100903.41;10430680;28;20216;-72
2021/06/23 06:42:32;;;;;;;8.40;3.95;;;;;;;15.88;56.01;100905.56;10419531;28;20227;-72
2021/06/23 06:47:36;;;;;;;8.32;4.50;;;;;;;16.12;55.47;100904.22;10428911;28;20204;-72
2021/06/23 06:52:40;;;;;;;10.45;5.13;;;;;;;16.30;54.95;100913.31;10414133;28;20341;-75
2021/06/23 06:57:43;;;;;;;23.15;12.60;;;;;;;16.42;54.32;100911.25;10427470;28;20207;-75
2021/06/23 07:02:47;;;;;;;16.17;8.23;;;;;;;16.28;54.51;100914.47;10431314;28;20301;-73
2021/06/23 07:07:50;;;;;;;11.27;4.25;;;;;;;16.35;54.18;100924.56;10431473;28;20193;-76
2021/06/23 07:12:54;;;;;;;8.35;3.83;;;;;;;16.49;54.00;100933.22;10432882;28;20328;-74
2021/06/23 07:17:59;;;;;;;10.32;4.70;;;;;;;16.59;53.46;100929.47;10432402;28;20245;-75
2021/06/23 07:23:02;;;;;;;11.98;4.10;;;;;;;16.42;53.58;100924.81;10431250;28;20206;-74
2021/06/23 07:28:08;;;;;;;8.90;4.28;;;;;;;16.54;54.28;100933.63;10428899;28;20213;-75
2021/06/23 07:33:13;;;;;;;8.10;4.10;;;;;;;16.93;53.39;100927.97;10430030;28;20214;-77
2021/06/23 07:38:16;;;;;;;7.07;3.85;;;;;;;17.57;51.57;100920.63;10394923;28;20205;-74
2021/06/23 07:43:19;;;;;;;8.00;4.00;;;;;;;18.20;49.18;100922.31;10389686;28;20193;-76
2021/06/23 07:48:26;;;;;;;4.53;3.75;;;;;;;18.13;49.61;100922.09;10405919;28;20190;-76
2021/06/23 07:53:33;;;;;;;7.35;3.95;;;;;;;17.93;49.94;100924.97;10392052;28;20218;-76
2021/06/23 08:09:25;;;;;;;6.85;4.53;;;;;;;19.04;47.99;100932.38;10387911;28;20218;-74
2021/06/23 08:14:27;;;;;;;7.82;4.82;;;;;;;19.95;46.13;100934.13;10390043;28;20242;-74
2021/06/23 08:19:32;;;;;;;8.95;5.22;;;;;;;20.22;46.30;100926.59;10396156;28;20272;-75
2021/06/23 08:24:35;;;;;;;9.20;6.00;;;;;;;20.30;44.07;100935.59;10428924;28;20182;-75
2021/06/23 08:29:38;;;;;;;8.88;5.78;;;;;;;19.64;46.10;100934.84;10427698;28;20213;-72
2021/06/23 08:34:42;;;;;;;9.30;5.75;;;;;;;19.29;48.21;100929.69;10427749;28;20214;-74
2021/06/23 08:39:45;;;;;;;9.73;6.05;;;;;;;19.67;46.12;100931.78;10415014;23;20234;-74
2021/06/23 08:44:48;;;;;;;7.65;5.63;;;;;;;19.54;47.27;100939.56;10354806;28;20187;-74
2021/06/23 08:49:53;;;;;;;11.02;5.68;;;;;;;19.91;47.83;100935.50;10352300;28;20238;-74
2021/06/23 08:54:56;;;;;;;10.32;5.88;;;;;;;20.55;45.94;100938.28;10314514;28;20700;-75
2021/06/23 08:59:59;;;;;;;9.00;5.60;;;;;;;21.05;45.12;100938.91;10311802;28;20684;-74
2021/06/23 09:05:59;;;;;;;10.50;6.00;;;;;;;21.19;43.84;100930.78;10326852;28;20184;-74
2021/06/23 09:11:14;;;;;;;12.13;5.97;;;;;;;21.74;43.00;100934.28;10330769;28;20242;-74
2021/06/23 09:16:17;;;;;;;9.30;5.38;;;;;;;22.28;42.74;100928.66;10329158;28;20697;-74
2021/06/23 09:21:23;;;;;;;6.90;5.60;;;;;;;22.20;42.26;100925.16;10312654;28;20215;-74
2021/06/23 09:26:34;;;;;;;9.32;5.68;;;;;;;22.09;42.55;100929.22;10331799;28;20198;-74
2021/06/23 09:31:56;;;;;;;9.05;5.53;;;;;;;22.23;40.95;100927.53;10329716;28;20294;-74
2021/06/23 09:37:01;;;;;;;9.40;5.43;;;;;;;22.42;42.53;100928.84;10343128;28;20222;-74
2021/06/23 09:42:07;;;;;;;7.70;5.70;;;;;;;23.16;41.17;100931.50;10350872;28;20219;-75
2021/06/23 09:47:10;;;;;;;9.65;5.18;;;;;;;23.39;39.76;100925.81;10347368;28;20230;-74
2021/06/23 09:52:14;;;;;;;12.95;6.55;;;;;;;23.50;39.39;100927.19;10321011;28;20274;-74
2021/06/23 09:57:19;;;;;;;9.73;5.15;;;;;;;23.87;39.13;100921.44;10308897;28;20554;-74
2021/06/23 10:02:25;;;;;;;9.60;6.20;;;;;;;23.62;38.90;100918.25;10309303;28;20695;-74
2021/06/23 10:07:39;;;;;;;10.27;5.72;;;;;;;23.32;39.35;100922.19;10308770;28;20532;-75
2021/06/23 10:12:44;;;;;;;11.40;5.80;;;;;;;23.37;39.56;100926.03;10308943;28;20760;-75
2021/06/23 10:17:47;;;;;;;10.98;6.07;;;;;;;23.20;39.50;100922.72;10309945;28;20188;-74
2021/06/23 10:22:51;;;;;;;12.52;6.53;;;;;;;23.26;38.55;100920.22;10307436;28;20208;-74
2021/06/23 10:27:55;;;;;;;12.48;6.28;;;;;;;23.96;38.19;100929.53;10308263;28;20256;-74
2021/06/23 10:32:59;;;;;;;9.65;6.20;;;;;;;24.31;37.41;100930.41;10308491;28;20226;-74
2021/06/23 10:38:02;;;;;;;8.65;5.82;;;;;;;24.56;36.99;100938.16;10328467;28;20203;-74
2021/06/23 10:43:14;;;;;;;9.10;6.03;;;;;;;25.05;36.71;100929.72;10335028;28;20258;-75
2021/06/23 10:48:17;;;;;;;7.60;5.45;;;;;;;25.01;37.10;100927.56;10306774;28;20188;-75
2021/06/23 10:53:31;;;;;;;10.05;5.85;;;;;;;24.94;37.42;100922.91;10304042;28;20222;-74
2021/06/23 10:58:37;;;;;;;10.35;6.40;;;;;;;24.95;36.30;100921.00;10303739;28;20602;-74
2021/06/23 11:04:02;;;;;;;8.63;6.38;;;;;;;23.78;37.85;100922.66;10303989;28;20191;-74
2021/06/23 11:09:29;;;;;;;10.70;6.35;;;;;;;23.13;39.29;100930.00;10307063;28;20223;-74
2021/06/23 11:14:35;;;;;;;14.77;6.45;;;;;;;23.23;39.35;100926.97;10297092;28;20220;-74
2021/06/23 11:19:39;;;;;;;12.32;6.00;;;;;;;23.25;40.11;100924.00;10307164;28;20659;-74
2021/06/23 11:24:42;;;;;;;7.53;5.90;;;;;;;23.34;40.02;100922.81;10306655;28;20552;-74
2021/06/23 11:29:47;;;;;;;9.73;6.38;;;;;;;23.41;40.40;100919.09;10306833;28;20212;-74
2021/06/23 11:34:55;;;;;;;13.57;6.93;;;;;;;24.00;39.74;100914.38;10305986;28;20200;-74
2021/06/23 11:40:24;;;;;;;11.48;6.30;;;;;;;23.98;39.10;100914.56;10306309;28;20719;-75
2021/06/23 11:45:29;;;;;;;8.52;6.13;;;;;;;23.85;38.51;100923.53;10296721;28;20212;-74
2021/06/23 11:50:33;;;;;;;9.57;6.50;;;;;;;23.43;40.98;100927.16;10288546;28;20228;-74
2021/06/23 11:55:36;;;;;;;11.63;6.60;;;;;;;23.20;41.05;100928.19;10305144;28;20649;-74
2021/06/23 12:00:41;;;;;;;14.18;7.57;;;;;;;23.47;41.32;100930.34;10304789;28;20216;-74
2021/06/23 12:05:46;;;;;;;13.40;7.63;;;;;;;23.87;40.87;100926.09;10286541;28;20192;-74
2021/06/23 12:10:49;;;;;;;11.80;7.25;;;;;;;24.88;39.08;100931.97;10285751;28;20228;-75
2021/06/23 12:15:53;;;;;;;12.93;7.88;;;;;;;25.14;37.65;100924.88;10311756;28;20219;-74
2021/06/23 12:20:56;;;;;;;11.18;7.63;;;;;;;25.34;38.90;100917.53;10320145;28;20231;-75
2021/06/23 12:26:00;;;;;;;10.63;7.00;;;;;;;26.79;34.99;100916.72;10318543;28;20545;-76
2021/06/23 12:31:05;;;;;;;10.68;7.47;;;;;;;24.75;37.19;100924.53;10317354;28;20212;-76
2021/06/23 12:36:08;;;;;;;11.05;7.82;;;;;;;24.55;39.18;100907.13;10316670;28;20290;-75
2021/06/23 12:41:11;;;;;;;9.57;7.85;;;;;;;24.99;37.60;100903.06;10315894;28;20224;-76
2021/06/23 12:46:16;;;;;;;12.80;8.77;;;;;;;24.66;37.72;100900.19;10315627;28;20267;-75
2021/06/23 12:51:19;;;;;;;9.90;7.68;;;;;;;24.01;39.42;100899.59;10316517;28;20355;-76
2021/06/23 12:56:22;;;;;;;15.93;9.02;;;;;;;23.89;40.62;100904.78;10296734;28;20223;-75
2021/06/23 13:01:26;;;;;;;13.45;8.35;;;;;;;23.47;41.17;100905.66;10311569;28;20214;-75
2021/06/23 13:06:29;;;;;;;12.27;8.77;;;;;;;23.03;41.78;100907.50;10315457;28;20188;-75
2021/06/23 13:11:32;;;;;;;12.98;9.05;;;;;;;22.65;42.56;100901.38;10316293;28;20239;-75
2021/06/23 13:16:37;;;;;;;13.95;8.93;;;;;;;22.67;42.80;100907.50;10298827;28;20215;-74
2021/06/23 13:21:40;;;;;;;12.15;8.75;;;;;;;22.02;42.81;100907.22;10315583;28;20212;-74
2021/06/23 13:26:43;;;;;;;11.32;8.25;;;;;;;21.96;44.09;100923.53;10312031;28;20190;-75
2021/06/23 13:31:48;;;;;;;13.60;9.25;;;;;;;22.27;44.06;100918.75;10309236;28;20214;-74
2021/06/23 13:36:52;;;;;;;11.82;9.35;;;;;;;22.05;44.58;100923.28;10308740;28;20216;-74
2021/06/23 13:41:55;;;;;;;11.77;9.85;;;;;;;21.66;45.83;100924.28;10308848;28;20600;-74
2021/06/23 13:46:59;;;;;;;14.77;8.75;;;;;;;21.86;44.27;100921.91;10290872;28;20202;-76
2021/06/23 13:52:03;;;;;;;11.30;8.00;;;;;;;22.38;44.63;100911.97;10308732;28;20219;-74
2021/06/23 13:57:08;;;;;;;11.80;9.40;;;;;;;22.73;43.26;100912.22;10295476;28;20215;-73
2021/06/23 14:02:12;;;;;;;11.75;9.70;;;;;;;23.04;42.56;100911.09;10319012;28;20707;-74
2021/06/23 14:07:16;;;;;;;13.65;9.88;;;;;;;23.36;41.55;100918.84;10308299;28;20192;-75
2021/06/23 14:12:19;;;;;;;13.07;9.35;;;;;;;23.34;42.25;100920.09;10314138;28;20222;-74
2021/06/23 14:17:23;;;;;;;11.50;9.05;;;;;;;24.07;41.16;100910.59;10308714;28;20267;-76
2021/06/23 14:22:26;;;;;;;15.18;9.55;;;;;;;23.83;41.00;100908.31;10307912;28;20232;-75
2021/06/23 14:27:30;;;;;;;15.05;10.32;;;;;;;23.47;42.31;100911.16;10307249;28;20658;-75
2021/06/23 14:32:34;;;;;;;14.57;8.90;;;;;;;23.32;42.31;100911.22;10307698;28;20219;-77
2021/06/23 14:37:37;;;;;;;13.23;8.68;;;;;;;23.82;41.84;100899.25;10305708;28;20278;-75
2021/06/23 14:42:41;;;;;;;11.18;8.25;;;;;;;24.95;40.72;100896.25;10345663;23;20220;-77
2021/06/23 14:47:46;;;;;;;9.48;7.85;;;;;;;25.48;37.68;100893.66;10340707;28;20192;-74
2021/06/23 14:52:49;;;;;;;11.63;7.82;;;;;;;25.77;38.19;100897.06;10332724;28;20219;-74
2021/06/23 14:57:53;;;;;;;9.48;7.07;;;;;;;25.10;39.68;100894.22;10348108;28;20578;-74
2021/06/23 15:02:57;;;;;;;11.13;7.90;;;;;;;24.46;40.34;100887.19;10349358;28;20218;-75
2021/06/23 15:08:01;;;;;;;9.80;7.38;;;;;;;24.21;41.03;100891.47;10348563;28;20191;-75
2021/06/23 15:13:04;;;;;;;10.45;7.18;;;;;;;24.03;41.48;100887.38;10350101;28;20722;-75
2021/06/23 15:18:09;;;;;;;10.57;7.20;;;;;;;23.61;41.84;100891.03;10346584;28;20715;-75
2021/06/23 15:23:12;;;;;;;10.13;7.43;;;;;;;23.34;42.37;100878.97;10328311;28;20215;-75
2021/06/23 15:28:15;;;;;;;13.02;7.28;;;;;;;23.13;43.15;100883.41;10327973;28;20238;-75
2021/06/23 15:33:20;;;;;;;11.55;7.45;;;;;;;22.94;43.91;100887.59;10307246;28;20220;-74
2021/06/23 15:38:31;;;;;;;15.05;8.02;;;;;;;22.67;43.85;100870.03;10306541;28;20297;-75
2021/06/23 15:43:34;;;;;;;11.07;7.70;;;;;;;22.41;44.90;100878.72;10307246;28;20243;-75
2021/06/23 15:48:39;;;;;;;11.88;8.25;;;;;;;21.88;45.46;100870.59;10301983;28;20357;-74
2021/06/23 15:53:42;;;;;;;9.40;7.03;;;;;;;21.62;47.14;100867.44;10307413;28;20219;-74
2021/06/23 15:58:47;;;;;;;9.52;7.75;;;;;;;21.37;47.54;100867.66;10306861;28;20230;-74
2021/06/23 16:03:51;;;;;;;11.20;8.05;;;;;;;21.18;47.21;100868.16;10305483;28;20222;-74
2021/06/23 16:08:54;;;;;;;15.13;7.80;;;;;;;20.79;48.89;100866.34;10306382;28;20188;-75
2021/06/23 16:13:57;;;;;;;11.80;9.13;;;;;;;20.66;48.58;100866.91;10306284;28;20292;-74
2021/06/23 16:19:02;;;;;;;15.10;7.70;;;;;;;20.49;49.43;100863.44;10306505;28;20227;-74
2021/06/23 16:24:10;;;;;;;10.13;7.55;;;;;;;20.42;49.95;100859.69;10304784;28;20196;-75
2021/06/23 16:29:14;;;;;;;12.82;8.05;;;;;;;20.52;50.88;100856.78;10305245;28;20266;-75
2021/06/23 16:34:18;;;;;;;12.40;7.30;;;;;;;20.55;49.90;100859.13;10305855;28;20579;-75
2021/06/23 16:39:22;;;;;;;13.65;6.80;;;;;;;20.46;50.44;100857.47;10281231;28;20224;-75
2021/06/23 16:44:25;;;;;;;9.52;7.97;;;;;;;20.61;49.84;100852.97;10265978;28;20189;-75
2021/06/23 16:49:30;;;;;;;9.73;7.28;;;;;;;20.80;49.91;100854.38;10298327;28;20224;-73
2021/06/23 16:54:33;;;;;;;7.65;6.50;;;;;;;20.85;49.35;100851.13;10302098;28;20923;-76
2021/06/23 16:59:36;;;;;;;9.65;6.97;;;;;;;20.96;48.69;100857.00;10296469;28;20296;-74
2021/06/23 17:04:40;;;;;;;6.88;6.20;;;;;;;20.81;49.84;100853.34;10313504;28;20192;-76
2021/06/23 17:09:43;;;;;;;7.63;6.63;;;;;;;20.57;49.95;100857.09;10312434;28;20212;-77
2021/06/23 17:14:46;;;;;;;9.25;6.68;;;;;;;20.26;50.49;100857.84;10311874;28;20298;-74
2021/06/23 17:19:51;;;;;;;9.68;6.28;;;;;;;20.13;51.12;100863.88;10315144;28;20223;-75
2021/06/23 17:24:54;;;;;;;9.88;5.82;;;;;;;19.92;52.34;100876.38;10300329;28;20272;-75
2021/06/23 17:29:57;;;;;;;6.78;6.05;;;;;;;19.68;51.95;100878.97;10271649;28;20217;-75
2021/06/23 17:35:01;;;;;;;6.90;5.55;;;;;;;19.64;52.23;100874.91;10302192;28;20226;-75
2021/06/23 17:40:07;;;;;;;13.32;6.82;;;;;;;19.51;52.16;100874.53;10271157;28;20224;-75
2021/06/23 17:45:11;;;;;;;9.32;6.25;;;;;;;19.45;52.86;100867.91;10270832;28;20212;-75
2021/06/23 17:50:16;;;;;;;6.90;5.25;;;;;;;19.44;53.63;100865.31;10270877;28;20212;-75
2021/06/23 17:55:26;;;;;;;7.20;5.50;;;;;;;19.44;53.38;100859.88;10270449;28;20220;-75
2021/06/23 18:00:31;;;;;;;7.18;5.35;;;;;;;19.56;53.10;100861.28;10270875;28;20248;-76
2021/06/23 18:05:36;;;;;;;8.05;5.60;;;;;;;19.79;52.78;100855.09;10290925;28;20188;-74
2021/06/23 18:10:39;;;;;;;6.70;5.65;;;;;;;20.11;52.00;100852.28;10309425;28;20224;-75
2021/06/23 18:15:43;;;;;;;6.03;5.18;;;;;;;20.26;51.09;100838.75;10309713;28;20298;-75
2021/06/23 18:20:48;;;;;;;10.93;6.10;;;;;;;20.03;51.45;100843.28;10310242;28;20212;-75
2021/06/23 18:25:52;;;;;;;8.90;5.50;;;;;;;19.82;52.36;100849.31;10288121;28;20359;-75
2021/06/23 18:30:55;;;;;;;11.52;5.88;;;;;;;19.69;52.60;100849.84;10269982;28;20212;-75
2021/06/23 18:36:00;;;;;;;5.47;4.90;;;;;;;19.21;54.18;100852.41;10205097;28;20229;-71
2021/06/23 18:41:03;;;;;;;8.15;5.15;;;;;;;19.05;54.62;100862.44;10157365;28;20681;-71
2021/06/23 18:46:06;;;;;;;8.00;5.65;;;;;;;18.83;55.19;100861.22;10164657;28;20247;-72
2021/06/23 18:51:10;;;;;;;7.63;6.00;;;;;;;18.70;55.08;100862.50;10178106;28;20223;-72
2021/06/23 18:56:15;;;;;;;7.85;5.38;;;;;;;18.69;55.58;100860.78;10180872;28;20238;-72
2021/06/23 19:01:18;;;;;;;7.00;5.88;;;;;;;18.59;56.03;100868.25;10180325;28;20230;-72
2021/06/23 19:06:22;;;;;;;7.15;5.85;;;;;;;18.48;55.48;100863.94;10184446;28;20211;-72
2021/06/23 19:11:25;;;;;;;8.18;5.75;;;;;;;18.39;55.81;100866.81;10184187;28;20217;-72
2021/06/23 19:16:28;;;;;;;8.50;5.60;;;;;;;18.39;55.79;100870.38;10183130;28;20283;-72
2021/06/23 19:21:33;;;;;;;8.27;6.15;;;;;;;18.33;56.42;100869.19;10182579;28;20207;-72
2021/06/23 19:26:36;;;;;;;8.82;5.97;;;;;;;18.26;56.83;100870.81;10186104;28;20221;-74
2021/06/23 19:31:39;;;;;;;9.10;6.72;;;;;;;18.21;57.73;100870.50;10184066;28;20896;-72
2021/06/23 19:36:44;;;;;;;7.10;6.38;;;;;;;18.16;57.29;100875.56;10181015;28;20222;-72
2021/06/23 19:41:46;;;;;;;7.47;6.47;;;;;;;;;;10169294;28;20666;-72
2021/06/23 19:46:49;;;;;;;7.78;6.72;;;;;;;18.00;57.74;100880.91;10168470;28;20202;-73
2021/06/23 19:51:54;;;;;;;8.05;6.50;;;;;;;17.95;58.03;100891.38;10154436;28;20220;-72
2021/06/23 19:56:57;;;;;;;10.63;6.13;;;;;;;17.90;58.37;100876.38;10193153;28;20301;-73
2021/06/23 20:02:00;;;;;;;8.82;6.10;;;;;;;17.79;59.19;100882.09;10178659;28;20264;-74
2021/06/23 20:07:05;;;;;;;10.93;6.78;;;;;;;17.64;59.25;100886.41;10168211;28;20255;-72
2021/06/23 20:12:09;;;;;;;7.82;6.38;;;;;;;17.60;59.70;100894.00;10164606;28;20233;-72
2021/06/23 20:17:14;;;;;;;9.43;6.65;;;;;;;17.59;60.09;100891.47;10178270;28;20304;-72
2021/06/23 20:22:18;;;;;;;11.15;7.05;;;;;;;17.54;59.89;100891.94;10168613;28;20247;-71
2021/06/23 20:27:21;;;;;;;9.75;6.03;;;;;;;17.42;60.33;100874.19;10185674;28;20199;-73
2021/06/23 20:32:24;;;;;;;10.35;6.68;;;;;;;17.27;61.31;100879.31;10184306;28;20233;-72
2021/06/23 20:37:29;;;;;;;11.13;7.45;;;;;;;17.09;62.05;100883.88;10176023;28;20220;-73
2021/06/23 20:42:32;;;;;;;8.77;7.72;;;;;;;16.99;62.27;100878.50;10207484;23;20238;-74
2021/06/23 20:47:35;;;;;;;12.75;8.20;;;;;;;16.96;62.53;100889.69;10197291;28;20302;-73
2021/06/23 20:52:39;;;;;;;12.88;7.72;;;;;;;16.98;62.44;100868.69;10189313;28;20220;-73
2021/06/23 20:57:49;;;;;;;9.68;7.18;;;;;;;16.88;62.50;100859.75;10195033;28;20231;-73
2021/06/23 21:02:54;;;;;;;13.40;8.10;;;;;;;16.90;62.51;100860.44;10196208;28;20221;-74
2021/06/23 21:08:00;;;;;;;15.52;8.52;;;;;;;16.94;62.54;100857.25;10196640;28;20350;-73
2021/06/23 21:13:05;;;;;;;9.70;7.97;;;;;;;16.92;62.68;100847.56;10195618;28;20212;-73
2021/06/23 21:18:16;;;;;;;13.10;8.75;;;;;;;16.80;62.85;100839.66;10187973;28;20396;-73
2021/06/23 21:23:23;;;;;;;15.40;9.27;;;;;;;16.79;62.08;100850.69;10188344;28;20612;-74
2021/06/23 21:28:28;;;;;;;11.02;8.20;;;;;;;16.81;62.29;100863.09;10187850;28;20195;-74
2021/06/23 21:33:33;;;;;;;14.18;9.25;;;;;;;16.85;62.00;100857.34;10188384;28;20219;-75
2021/06/23 21:39:01;;;;;;;13.23;8.68;;;;;;;16.79;61.85;100864.25;10191108;28;20299;-75
2021/06/23 21:44:07;;;;;;;11.90;8.10;;;;;;;16.69;62.06;100853.44;10195088;28;20229;-74
2021/06/23 21:49:21;;;;;;;12.73;8.43;;;;;;;16.58;62.28;100872.63;10265121;28;20193;-74
2021/06/23 21:54:47;;;;;;;11.43;8.18;;;;;;;16.53;62.44;100878.50;10293579;28;20689;-73
2021/06/23 21:59:53;;;;;;;14.48;8.43;;;;;;;16.47;63.04;100884.53;10311293;28;20220;-74
2021/06/23 22:04:58;;;;;;;15.63;9.02;;;;;;;16.34;63.64;100892.16;10309386;28;20187;-74
2021/06/23 22:10:06;;;;;;;14.02;8.55;;;;;;;16.25;63.79;100887.63;10309924;28;20199;-73
2021/06/23 22:15:12;;;;;;;14.85;8.50;;;;;;;16.18;63.73;100906.34;10309398;28;20193;-73
2021/06/23 22:20:17;;;;;;;13.07;8.10;;;;;;;16.25;64.09;100922.88;10309881;28;20223;-73
2021/06/23 22:25:25;;;;;;;13.90;8.13;;;;;;;16.21;64.07;100924.16;10291590;28;20665;-75
2021/06/23 22:30:30;;;;;;;10.75;6.90;;;;;;;16.12;64.25;100926.72;10309164;28;20597;-74
2021/06/23 22:35:34;;;;;;;12.52;7.25;;;;;;;16.08;64.92;100903.66;10309264;28;20259;-74
2021/06/23 22:40:45;;;;;;;11.77;7.60;;;;;;;15.96;64.55;100918.38;10308452;28;20222;-74
2021/06/23 22:45:50;;;;;;;10.07;7.70;;;;;;;15.86;65.15;100901.31;10308349;28;20202;-74
2021/06/23 22:50:55;;;;;;;10.90;7.40;;;;;;;15.83;65.33;100907.03;10308296;28;20204;-72
2021/06/23 22:56:03;;;;;;;11.07;7.30;;;;;;;15.80;65.45;100913.59;10307939;28;20214;-73
2021/06/23 23:01:06;;;;;;;11.88;7.03;;;;;;;15.79;65.20;100921.84;10307013;28;20212;-74
2021/06/23 23:06:09;;;;;;;9.98;6.80;;;;;;;15.68;65.42;100920.16;10307692;28;20249;-75
2021/06/23 23:11:15;;;;;;;13.70;7.07;;;;;;;15.68;65.69;100922.84;10290297;28;20216;-73
2021/06/23 23:16:18;;;;;;;9.93;6.78;;;;;;;15.58;65.67;100922.03;10307174;28;20219;-73
2021/06/23 23:21:20;;;;;;;12.52;7.57;;;;;;;15.57;65.94;100931.97;10307586;28;20637;-73
2021/06/23 23:26:25;;;;;;;11.00;7.32;;;;;;;15.50;65.55;100925.44;10306904;28;20685;-73
2021/06/23 23:31:28;;;;;;;15.88;6.85;;;;;;;15.47;65.93;100929.31;10307164;28;20208;-72